createdAt,value
2023-04-07T00:02:01.079Z,17.60
2023-04-07T00:04:29.083Z,17.23
2023-04-07T00:06:58.347Z,18.20
2023-04-07T00:09:25.999Z,18.58
2023-04-07T00:11:53.607Z,17.13
2023-04-07T00:14:21.217Z,17.73
2023-04-07T00:16:48.834Z,18.42
2023-04-07T00:19:16.758Z,17.67
2023-04-07T00:21:44.423Z,17.52
2023-04-07T00:24:16.392Z,18.63
2023-04-07T00:26:51.740Z,18.60
2023-04-07T00:29:19.452Z,18.42
2023-04-07T00:31:47.117Z,18.60
2023-04-07T00:34:14.793Z,18.20
2023-04-07T00:36:42.594Z,17.73
2023-04-07T00:39:10.294Z,18.42
2023-04-07T00:41:39.460Z,18.45
2023-04-07T00:44:07.112Z,18.17
2023-04-07T00:46:34.861Z,18.47
2023-04-07T00:49:02.626Z,18.30
2023-04-07T00:51:31.492Z,18.38
2023-04-07T00:53:59.246Z,19.60
2023-04-07T00:56:26.966Z,20.25
2023-04-07T00:58:56.003Z,18.35
2023-04-07T01:01:26.965Z,19.02
2023-04-07T01:03:59.704Z,20.30
2023-04-07T01:06:31.927Z,19.58
2023-04-07T01:09:04.377Z,19.55
2023-04-07T01:11:36.394Z,19.93
2023-04-07T01:14:05.803Z,20.13
2023-04-07T01:16:36.993Z,20.45
2023-04-07T01:19:10.445Z,19.73
2023-04-07T01:21:38.999Z,20.77
2023-04-07T01:24:40.869Z,20.33
2023-04-07T01:27:18.429Z,18.90
2023-04-07T01:29:50.495Z,20.53
2023-04-07T01:32:20.396Z,20.20
2023-04-07T01:34:49.183Z,21.10
2023-04-07T01:37:17.614Z,21.05
2023-04-07T01:39:45.566Z,20.50
2023-04-07T01:42:13.688Z,21.60
2023-04-07T01:44:41.930Z,21.05
2023-04-07T01:47:11.358Z,21.73
2023-04-07T01:49:39.354Z,21.60
2023-04-07T01:52:07.357Z,21.95
2023-04-07T01:54:35.811Z,22.50
2023-04-07T01:57:03.471Z,21.83
2023-04-07T01:59:31.316Z,23.90
2023-04-07T02:01:59.237Z,22.95
2023-04-07T02:04:34.128Z,22.52
2023-04-07T02:07:04.454Z,22.88
2023-04-07T02:09:33.530Z,23.52
2023-04-07T02:12:01.892Z,23.20
2023-04-07T02:14:30.068Z,23.40
2023-04-07T02:16:58.406Z,22.38
2023-04-07T02:19:27.428Z,22.10
2023-04-07T02:21:56.711Z,22.10
2023-04-07T02:24:24.411Z,23.48
2023-04-07T02:26:52.131Z,23.20
2023-04-07T02:29:19.849Z,23.52
2023-04-07T02:31:47.577Z,23.10
2023-04-07T02:34:15.591Z,24.10
2023-04-07T02:36:43.350Z,23.50
2023-04-07T02:39:12.609Z,23.20
2023-04-07T02:41:40.656Z,24.88
2023-04-07T02:44:08.303Z,24.58
2023-04-07T02:46:36.073Z,23.55
2023-04-07T02:49:03.870Z,24.83
2023-04-07T02:51:31.894Z,27.23
2023-04-07T02:53:59.640Z,25.45
2023-04-07T02:56:28.844Z,24.42
2023-04-07T02:58:56.477Z,27.42
2023-04-07T03:01:24.112Z,25.25
2023-04-07T03:03:52.099Z,25.38
2023-04-07T03:06:20.106Z,25.52
2023-04-07T03:08:47.761Z,24.27
2023-04-07T03:11:15.568Z,26.25
2023-04-07T03:13:44.608Z,27.25
2023-04-07T03:16:12.256Z,26.65
2023-04-07T03:18:39.983Z,24.65
2023-04-07T03:21:07.698Z,23.90
2023-04-07T03:23:35.532Z,25.73
2023-04-07T03:26:03.737Z,25.05
2023-04-07T03:28:31.394Z,26.60
2023-04-07T03:31:00.498Z,25.60
2023-04-07T03:33:28.209Z,24.27
2023-04-07T03:35:55.893Z,26.57
2023-04-07T03:38:23.674Z,26.10
2023-04-07T03:40:51.388Z,24.45
2023-04-07T03:43:19.277Z,26.33
2023-04-07T03:45:47.989Z,25.70
2023-04-07T03:48:17.146Z,24.58
2023-04-07T03:50:44.796Z,25.17
2023-04-07T03:53:13.988Z,24.38
2023-04-07T03:55:41.795Z,25.75
2023-04-07T03:58:09.541Z,24.25
2023-04-07T04:00:37.242Z,24.63
2023-04-07T04:03:05.442Z,23.92
2023-04-07T04:05:34.518Z,26.77
2023-04-07T04:08:02.203Z,24.80
2023-04-07T04:10:29.963Z,24.65
2023-04-07T04:13:00.641Z,23.53
2023-04-07T04:15:28.333Z,22.92
2023-04-07T04:17:56.032Z,24.65
2023-04-07T04:20:23.698Z,25.42
2023-04-07T04:22:52.771Z,27.20
2023-04-07T04:25:20.886Z,25.05
2023-04-07T04:27:48.829Z,24.77
2023-04-07T04:30:16.633Z,24.10
2023-04-07T04:32:44.688Z,25.75
2023-04-07T04:35:12.504Z,24.58
2023-04-07T04:37:40.177Z,26.15
2023-04-07T04:40:11.644Z,25.23
2023-04-07T04:42:39.388Z,24.33
2023-04-07T04:45:08.163Z,23.60
2023-04-07T04:47:35.888Z,24.55
2023-04-07T04:50:03.676Z,23.50
2023-04-07T04:52:31.584Z,24.35
2023-04-07T04:54:59.488Z,23.48
2023-04-07T04:57:28.514Z,22.17
2023-04-07T04:59:56.199Z,22.70
2023-04-07T05:02:24.004Z,21.77
2023-04-07T05:04:51.863Z,21.83
2023-04-07T05:07:19.592Z,22.70
2023-04-07T05:09:47.677Z,22.80
2023-04-07T05:12:15.709Z,22.45
2023-04-07T05:14:44.828Z,23.08
2023-04-07T05:17:12.536Z,21.20
2023-04-07T05:19:40.430Z,20.50
2023-04-07T05:22:08.123Z,21.10
2023-04-07T05:24:35.914Z,19.45
2023-04-07T05:27:03.628Z,20.63
2023-04-07T05:29:31.576Z,20.50
2023-04-07T05:32:01.572Z,20.13
2023-04-07T05:34:29.342Z,19.13
2023-04-07T05:36:57.193Z,19.13
2023-04-07T05:39:25.129Z,18.20
2023-04-07T05:41:52.993Z,18.35
2023-04-07T05:44:20.632Z,18.02
2023-04-07T05:46:48.323Z,18.83
2023-04-07T05:49:20.036Z,17.58
2023-04-07T05:51:49.258Z,18.90
2023-04-07T05:54:17.134Z,17.88
2023-04-07T05:56:44.862Z,18.00
2023-04-07T05:59:12.496Z,17.40
2023-04-07T06:01:40.333Z,17.43
2023-04-07T06:04:08.171Z,16.60
2023-04-07T06:06:38.178Z,17.58
2023-04-07T06:09:07.035Z,17.80
2023-04-07T06:11:35.891Z,16.98
2023-04-07T06:14:03.892Z,17.08
2023-04-07T06:16:31.554Z,17.42
2023-04-07T06:18:59.283Z,17.38
2023-04-07T06:21:27.424Z,16.45
2023-04-07T06:23:56.556Z,17.05
2023-04-07T06:26:24.314Z,16.65
2023-04-07T06:28:52.000Z,18.10
2023-04-07T06:31:19.881Z,18.83
2023-04-07T06:33:47.977Z,18.08
2023-04-07T06:36:16.039Z,18.30
2023-04-07T06:38:43.753Z,17.25
2023-04-07T06:41:16.901Z,18.02
2023-04-07T06:43:45.045Z,17.58
2023-04-07T06:46:12.790Z,17.33
2023-04-07T06:48:40.580Z,18.30
2023-04-07T06:51:08.234Z,17.70
2023-04-07T06:53:35.947Z,17.10
2023-04-07T06:56:07.326Z,17.63
2023-04-07T06:58:37.550Z,17.02
2023-04-07T07:01:06.331Z,15.20
2023-04-07T07:03:34.632Z,15.68
2023-04-07T07:06:02.984Z,16.30
2023-04-07T07:08:31.196Z,15.07
2023-04-07T07:10:59.000Z,14.95
2023-04-07T07:13:27.814Z,14.33
2023-04-07T07:15:57.029Z,15.32
2023-04-07T07:18:24.979Z,14.48
2023-04-07T07:20:52.683Z,14.93
2023-04-07T07:23:20.374Z,15.10
2023-04-07T07:25:48.060Z,13.55
2023-04-07T07:28:16.267Z,14.00
2023-04-07T07:30:44.055Z,15.52
2023-04-07T07:33:13.208Z,14.73
2023-04-07T07:35:41.507Z,15.32
2023-04-07T07:38:09.156Z,14.82
2023-04-07T07:40:37.048Z,13.90
2023-04-07T07:43:04.674Z,14.10
2023-04-07T07:45:32.316Z,13.70
2023-04-07T07:48:00.116Z,14.43
2023-04-07T07:50:29.236Z,13.65
2023-04-07T07:52:56.926Z,13.32
2023-04-07T07:55:24.778Z,14.25
2023-04-07T07:57:52.531Z,13.23
2023-04-07T08:00:20.776Z,13.77
2023-04-07T08:02:48.551Z,13.57
2023-04-07T08:05:16.567Z,13.57
2023-04-07T08:07:46.910Z,13.93
2023-04-07T08:10:14.959Z,14.57
2023-04-07T08:12:42.605Z,14.02
2023-04-07T08:15:10.813Z,14.68
2023-04-07T08:17:38.939Z,14.02
2023-04-07T08:20:08.201Z,14.00
2023-04-07T08:22:35.889Z,13.98
2023-04-07T08:25:05.506Z,13.68
2023-04-07T08:27:33.252Z,13.98
2023-04-07T08:30:01.726Z,14.50
2023-04-07T08:32:36.081Z,13.75
2023-04-07T08:35:03.942Z,13.40
2023-04-07T08:37:31.972Z,12.95
2023-04-07T08:39:59.674Z,13.45
2023-04-07T08:42:30.767Z,13.55
2023-04-07T08:45:01.201Z,12.35
2023-04-07T08:47:29.475Z,12.40
2023-04-07T08:49:59.046Z,11.88
2023-04-07T08:52:33.416Z,12.33
2023-04-07T08:55:02.971Z,12.50
2023-04-07T08:57:32.720Z,12.98
2023-04-07T09:00:05.563Z,12.80
2023-04-07T09:02:35.161Z,13.97
2023-04-07T09:05:05.193Z,13.32
2023-04-07T09:07:33.956Z,13.02
2023-04-07T09:10:02.077Z,12.87
2023-04-07T09:12:30.544Z,13.17
2023-04-07T09:14:59.692Z,13.80
2023-04-07T09:17:27.900Z,12.77
2023-04-07T09:19:57.708Z,13.35
2023-04-07T09:22:39.429Z,13.55
2023-04-07T09:25:17.753Z,12.15
2023-04-07T09:27:59.210Z,12.57
2023-04-07T09:30:28.847Z,13.10
2023-04-07T09:32:56.830Z,13.65
2023-04-07T09:35:24.867Z,13.77
2023-04-07T09:38:06.255Z,13.68
2023-04-07T09:40:34.463Z,13.57
2023-04-07T09:46:10.237Z,14.10
2023-04-07T09:48:38.503Z,13.70
2023-04-07T09:51:07.835Z,13.35
2023-04-07T09:53:48.710Z,12.27
2023-04-07T09:56:18.025Z,10.55
2023-04-07T09:58:47.248Z,11.10
2023-04-07T10:01:18.056Z,11.52
2023-04-07T10:03:47.859Z,10.15
2023-04-07T10:06:16.551Z,8.77
2023-04-07T10:08:44.592Z,8.57
2023-04-07T10:11:12.286Z,8.70
2023-04-07T10:13:41.437Z,9.38
2023-04-07T10:16:09.644Z,9.60
2023-04-07T10:18:40.405Z,9.50
2023-04-07T10:21:09.269Z,9.40
2023-04-07T10:23:50.423Z,8.75
2023-04-07T10:26:19.626Z,8.82
2023-04-07T10:28:50.802Z,8.70
2023-04-07T10:31:19.155Z,8.48
2023-04-07T10:33:52.855Z,8.18
2023-04-07T10:36:21.497Z,6.90
2023-04-07T10:39:20.464Z,6.67
2023-04-07T10:41:48.134Z,7.45
2023-04-07T10:44:48.204Z,7.50
2023-04-07T10:47:16.265Z,14.45
2023-04-07T10:50:19.526Z,6.00
2023-04-07T10:52:47.714Z,5.72
2023-04-07T10:55:31.659Z,5.18
2023-04-07T10:58:18.860Z,5.10
2023-04-07T11:01:20.779Z,5.47
2023-04-07T11:03:56.884Z,5.15
2023-04-07T11:06:27.153Z,5.50
2023-04-07T11:08:55.009Z,6.00
2023-04-07T11:11:38.429Z,5.18
2023-04-07T11:14:06.437Z,5.55
2023-04-07T11:16:46.970Z,5.63
2023-04-07T11:19:14.698Z,5.82
2023-04-07T11:21:43.807Z,5.82
2023-04-07T11:24:11.728Z,5.00
2023-04-07T11:26:40.593Z,5.13
2023-04-07T11:29:09.073Z,5.30
2023-04-07T11:31:37.199Z,5.07
2023-04-07T11:34:06.148Z,4.97
2023-04-07T11:36:35.665Z,5.43
2023-04-07T11:39:04.962Z,5.60
2023-04-07T11:41:33.871Z,5.55
2023-04-07T11:44:08.315Z,6.40
2023-04-07T11:46:36.765Z,6.50
2023-04-07T11:49:12.599Z,5.95
2023-04-07T11:51:40.573Z,6.15
2023-04-07T11:54:10.107Z,6.97
2023-04-07T11:56:48.267Z,7.50
2023-04-07T11:59:23.734Z,5.18
2023-04-07T12:01:53.441Z,5.67
2023-04-07T12:04:23.196Z,5.90
2023-04-07T12:06:51.306Z,7.05
2023-04-07T12:09:32.279Z,5.40
2023-04-07T12:12:00.183Z,5.63
2023-04-07T12:14:28.730Z,5.07
2023-04-07T12:16:58.073Z,6.07
2023-04-07T12:19:26.917Z,5.22
2023-04-07T12:21:54.668Z,5.18
2023-04-07T12:24:22.453Z,5.20
2023-04-07T12:26:51.552Z,4.93
2023-04-07T12:29:20.343Z,4.40
2023-04-07T12:31:50.867Z,5.10
2023-04-07T12:34:19.287Z,5.80
2023-04-07T12:36:46.983Z,5.10
2023-04-07T12:39:14.659Z,4.80
2023-04-07T12:41:42.431Z,5.20
2023-04-07T12:44:11.471Z,5.38
2023-04-07T12:46:39.219Z,4.85
2023-04-07T12:49:07.136Z,5.20
2023-04-07T12:51:34.910Z,5.05
2023-04-07T12:54:03.557Z,4.50
2023-04-07T12:56:31.811Z,4.55
2023-04-07T12:59:03.067Z,4.68
2023-04-07T13:01:33.111Z,5.37
2023-04-07T13:04:00.996Z,4.97
2023-04-07T13:06:28.852Z,4.75
2023-04-07T13:08:57.321Z,4.80
2023-04-07T13:11:25.747Z,4.85
2023-04-07T13:13:56.209Z,5.03
2023-04-07T13:16:25.252Z,7.30
2023-04-07T13:18:54.421Z,5.43
2023-04-07T13:23:53.712Z,4.30
2023-04-07T13:26:22.262Z,5.05
2023-04-07T13:28:50.123Z,4.82
2023-04-07T13:31:18.153Z,4.38
2023-04-07T13:33:46.595Z,4.78
2023-04-07T13:36:15.819Z,4.18
2023-04-07T13:38:43.616Z,4.15
2023-04-07T13:41:11.291Z,4.28
2023-04-07T13:43:38.933Z,4.35
2023-04-07T13:46:17.137Z,4.00
2023-04-07T13:48:49.522Z,4.72
2023-04-07T13:51:19.730Z,4.90
2023-04-07T13:53:47.910Z,4.72
2023-04-07T13:56:15.994Z,5.28
2023-04-07T13:58:43.656Z,4.85
2023-04-07T14:01:11.560Z,4.67
2023-04-07T14:03:39.318Z,5.28
2023-04-07T14:06:07.095Z,5.20
2023-04-07T14:08:36.229Z,5.33
2023-04-07T14:11:04.014Z,5.60
2023-04-07T14:13:32.097Z,5.70
2023-04-07T14:15:59.959Z,5.65
2023-04-07T14:18:28.012Z,6.13
2023-04-07T14:20:55.805Z,5.10
2023-04-07T14:23:36.043Z,5.15
2023-04-07T14:26:06.185Z,5.13
2023-04-07T14:28:33.858Z,4.83
2023-04-07T14:31:01.919Z,4.78
2023-04-07T14:33:29.663Z,4.00
2023-04-07T14:35:57.450Z,4.10
2023-04-07T14:38:26.004Z,4.80
2023-04-07T14:40:53.834Z,4.75
2023-04-07T14:43:23.073Z,6.65
2023-04-07T14:45:50.891Z,10.85
2023-04-07T14:48:18.582Z,12.63
2023-04-07T14:50:47.661Z,5.05
2023-04-07T14:53:16.217Z,5.68
2023-04-07T14:55:43.918Z,9.07
2023-04-07T14:58:11.566Z,6.40
2023-04-07T15:00:40.697Z,4.70
2023-04-07T15:03:08.696Z,4.82
2023-04-07T15:05:36.536Z,4.38
2023-04-07T15:08:04.348Z,4.33
2023-04-07T15:10:35.520Z,4.55
2023-04-07T15:13:03.588Z,4.28
2023-04-07T15:15:31.308Z,3.28
2023-04-07T15:18:00.424Z,2.97
2023-04-07T15:20:28.157Z,3.08
2023-04-07T15:22:55.872Z,2.72
2023-04-07T15:25:23.955Z,3.00
2023-04-07T15:27:51.652Z,2.70
2023-04-07T15:30:19.545Z,2.80
2023-04-07T15:32:58.000Z,2.67
2023-04-07T15:35:27.211Z,2.60
2023-04-07T15:37:54.938Z,3.28
2023-04-07T15:40:22.909Z,2.78
2023-04-07T15:42:50.656Z,3.15
2023-04-07T15:45:18.333Z,3.17
2023-04-07T15:47:46.113Z,3.22
2023-04-07T15:50:13.827Z,3.60
2023-04-07T15:52:42.919Z,3.40
2023-04-07T15:55:10.899Z,3.78
2023-04-07T15:57:38.551Z,3.63
2023-04-07T16:00:07.599Z,2.97
2023-04-07T16:04:24.518Z,3.63
2023-04-07T16:06:52.118Z,3.90
2023-04-07T16:09:19.865Z,3.83
2023-04-07T16:11:47.526Z,3.60
2023-04-07T16:14:15.192Z,4.45
2023-04-07T16:16:44.465Z,3.30
2023-04-07T16:19:14.561Z,3.30
2023-04-07T16:21:43.698Z,3.35
2023-04-07T16:24:11.480Z,5.53
2023-04-07T16:27:49.143Z,5.53
2023-04-07T16:30:18.274Z,4.80
2023-04-07T16:32:46.834Z,3.30
2023-04-07T16:35:15.968Z,3.83
2023-04-07T16:37:46.144Z,6.43
2023-04-07T16:40:14.294Z,5.50
2023-04-07T16:42:42.056Z,6.40
2023-04-07T16:45:11.948Z,5.55
2023-04-07T16:47:44.082Z,5.05
2023-04-07T16:50:11.936Z,5.53
2023-04-07T16:52:40.451Z,7.15
2023-04-07T16:55:08.832Z,10.43
2023-04-07T16:57:36.554Z,4.90
2023-04-07T17:00:05.817Z,4.72
2023-04-07T17:02:35.137Z,4.45
2023-04-07T17:05:03.068Z,4.72
2023-04-07T17:07:30.762Z,4.13
2023-04-07T17:09:58.582Z,4.15
2023-04-07T17:12:26.408Z,4.10
2023-04-07T17:14:54.113Z,4.70
2023-04-07T17:17:21.800Z,4.45
2023-04-07T17:19:50.877Z,4.50
2023-04-07T17:22:18.604Z,4.70
2023-04-07T17:24:46.296Z,5.20
2023-04-07T17:27:13.997Z,5.20
2023-04-07T17:29:41.686Z,5.50
2023-04-07T17:32:09.420Z,4.00
2023-04-07T17:36:58.704Z,7.47
2023-04-07T17:39:26.400Z,7.97
2023-04-07T17:41:54.108Z,10.30
2023-04-07T17:44:21.927Z,10.95
2023-04-07T17:46:49.742Z,9.27
2023-04-07T17:49:17.485Z,8.60
2023-04-07T17:51:45.840Z,8.47
2023-04-07T17:54:14.919Z,6.50
2023-04-07T17:56:42.593Z,7.30
2023-04-07T17:59:10.294Z,6.20
2023-04-07T18:01:38.098Z,6.85
2023-04-07T18:04:06.704Z,5.82
2023-04-07T18:06:35.027Z,5.97
2023-04-07T18:09:04.720Z,6.00
2023-04-07T18:11:33.810Z,6.38
2023-04-07T18:14:01.563Z,6.45
2023-04-07T18:16:29.447Z,6.75
2023-04-07T18:18:57.638Z,6.78
2023-04-07T18:21:25.298Z,7.63
2023-04-07T18:23:52.937Z,9.00
2023-04-07T18:26:20.602Z,9.93
2023-04-07T18:28:49.666Z,14.20
2023-04-07T18:31:17.422Z,14.00
2023-04-07T18:33:45.237Z,13.52
2023-04-07T18:36:14.293Z,12.30
2023-04-07T18:38:41.904Z,11.95
2023-04-07T18:41:09.586Z,10.60
2023-04-07T18:43:37.299Z,11.40
2023-04-07T18:46:07.138Z,12.18
2023-04-07T18:48:34.921Z,11.63
2023-04-07T18:51:02.649Z,11.65
2023-04-07T18:53:30.511Z,12.10
2023-04-07T18:55:58.152Z,11.70
2023-04-07T18:58:25.947Z,12.00
2023-04-07T19:00:54.540Z,11.95
2023-04-07T19:03:23.764Z,12.00
2023-04-07T19:05:52.706Z,13.23
2023-04-07T19:08:20.672Z,11.90
2023-04-07T19:10:49.319Z,11.85
2023-04-07T19:13:18.570Z,11.38
2023-04-07T19:15:46.749Z,10.90
2023-04-07T19:18:14.627Z,11.18
2023-04-07T19:20:43.724Z,11.85
2023-04-07T19:23:11.436Z,11.23
2023-04-07T19:25:40.142Z,11.20
2023-04-07T19:28:07.845Z,10.85
2023-04-07T19:30:35.529Z,10.20
2023-04-07T19:33:03.618Z,11.43
2023-04-07T19:35:32.118Z,9.85
2023-04-07T19:38:02.067Z,11.23
2023-04-07T19:40:31.369Z,10.57
2023-04-07T19:42:59.090Z,11.07
2023-04-07T19:45:27.033Z,9.80
2023-04-07T19:47:56.746Z,11.02
2023-04-07T19:50:25.020Z,10.57
2023-04-07T19:52:53.329Z,12.43
2023-04-07T19:55:22.691Z,11.43
2023-04-07T19:57:50.419Z,12.50
2023-04-07T20:00:18.614Z,16.23
2023-04-07T20:02:46.407Z,15.40
2023-04-07T20:05:14.115Z,16.23
2023-04-07T20:07:41.770Z,17.05
2023-04-07T20:10:10.003Z,15.88
2023-04-07T20:12:39.010Z,13.37
2023-04-07T20:15:08.234Z,14.50
2023-04-07T20:17:36.802Z,12.77
2023-04-07T20:20:04.530Z,13.82
2023-04-07T20:22:32.237Z,14.30
2023-04-07T20:24:59.879Z,12.05
2023-04-07T20:27:27.903Z,12.45
2023-04-07T20:29:57.218Z,13.03
2023-04-07T20:32:24.995Z,10.90
2023-04-07T20:34:52.689Z,10.63
2023-04-07T20:37:20.552Z,9.40
2023-04-07T20:39:48.494Z,9.68
2023-04-07T20:42:16.556Z,10.52
2023-04-07T20:44:44.302Z,10.65
2023-04-07T20:47:14.068Z,10.75
2023-04-07T20:49:43.561Z,10.88
2023-04-07T20:52:11.213Z,12.13
2023-04-07T20:54:40.271Z,10.93
2023-04-07T20:57:07.915Z,12.80
2023-04-07T20:59:36.132Z,12.90
2023-04-07T21:02:04.312Z,14.50
2023-04-07T21:04:33.812Z,16.67
2023-04-07T21:07:01.520Z,16.47
2023-04-07T21:09:29.230Z,16.58
2023-04-07T21:11:56.956Z,18.70
2023-04-07T21:14:24.667Z,18.70
2023-04-07T21:16:52.870Z,18.83
2023-04-07T21:19:20.760Z,19.05
2023-04-07T21:21:50.012Z,19.20
2023-04-07T21:24:17.688Z,18.48
2023-04-07T21:26:45.461Z,18.80
2023-04-07T21:29:13.221Z,18.13
2023-04-07T21:31:41.042Z,17.58
2023-04-07T21:34:09.001Z,14.27
2023-04-07T21:36:36.697Z,15.25
2023-04-07T21:39:06.587Z,13.85
2023-04-07T21:41:34.345Z,15.30
2023-04-07T21:44:02.697Z,15.27
2023-04-07T21:46:30.970Z,15.63
2023-04-07T21:48:58.692Z,16.60
2023-04-07T21:51:27.517Z,15.85
2023-04-07T21:53:55.417Z,15.73
2023-04-07T21:56:24.434Z,17.90
2023-04-07T21:58:52.176Z,17.10
2023-04-07T22:01:19.891Z,16.20
2023-04-07T22:03:47.728Z,17.98
2023-04-07T22:06:15.456Z,13.85
2023-04-07T22:08:48.909Z,13.52
2023-04-07T22:11:28.225Z,14.63
2023-04-07T22:13:56.049Z,12.98
2023-04-07T22:16:23.772Z,16.30
2023-04-07T22:18:51.888Z,14.52
2023-04-07T22:21:19.660Z,15.55
2023-04-07T22:23:47.318Z,15.80
2023-04-07T22:26:15.350Z,15.50
2023-04-07T22:28:44.476Z,13.65
2023-04-07T22:31:12.217Z,14.82
2023-04-07T22:33:39.901Z,14.90
2023-04-07T22:36:07.868Z,17.02
2023-04-07T22:38:35.636Z,16.50
2023-04-07T22:41:03.359Z,17.08
2023-04-07T22:43:31.036Z,17.95
2023-04-07T22:46:00.172Z,16.50
2023-04-07T22:48:28.297Z,15.90
2023-04-07T22:50:56.571Z,15.35
2023-04-07T22:53:24.271Z,16.13
2023-04-07T22:55:52.175Z,15.02
2023-04-07T22:58:19.818Z,14.82
2023-04-07T23:00:47.527Z,15.47
2023-04-07T23:03:16.811Z,15.57
2023-04-07T23:05:44.533Z,14.65
2023-04-07T23:08:12.188Z,14.77
2023-04-07T23:10:39.891Z,13.90
2023-04-07T23:13:07.555Z,15.18
2023-04-07T23:15:35.908Z,14.32
2023-04-07T23:18:03.713Z,13.80
2023-04-07T23:20:32.786Z,13.27
2023-04-07T23:23:00.655Z,13.45
2023-04-07T23:25:28.391Z,13.37
2023-04-07T23:27:56.150Z,13.30
2023-04-07T23:30:23.886Z,12.77
2023-04-07T23:32:51.812Z,12.85
2023-04-07T23:35:19.811Z,12.88
2023-04-07T23:37:48.989Z,13.20
2023-04-07T23:40:16.763Z,13.13
2023-04-07T23:42:44.432Z,13.20
2023-04-07T23:45:12.540Z,12.67
2023-04-07T23:47:40.353Z,13.07
2023-04-07T23:50:09.329Z,12.63
2023-04-07T23:52:36.940Z,12.20
2023-04-07T23:55:07.198Z,12.70
2023-04-07T23:57:34.909Z,12.40
